sensor_id;sensor_type;location;lat;lon;timestamp;P1;durP1;ratioP1;P2;durP2;ratioP2
71080;SDS011;58740;50.672;18.690;2023-04-02T00:09:14;36.50;;;18.80;;
71080;SDS011;58740;50.672;18.690;2023-04-02T00:11:49;40.10;;;19.00;;
71080;SDS011;58740;50.672;18.690;2023-04-02T00:14:26;39.90;;;18.80;;
71080;SDS011;58740;50.672;18.690;2023-04-02T00:16:58;36.10;;;17.10;;
71080;SDS011;58740;50.672;18.690;2023-04-02T00:19:34;38.30;;;18.30;;
71080;SDS011;58740;50.672;18.690;2023-04-02T00:22:11;38.40;;;18.80;;
71080;SDS011;58740;50.672;18.690;2023-04-02T00:24:43;39.60;;;19.60;;
71080;SDS011;58740;50.672;18.690;2023-04-02T00:27:12;38.00;;;17.60;;
71080;SDS011;58740;50.672;18.690;2023-04-02T00:29:50;38.40;;;19.60;;
71080;SDS011;58740;50.672;18.690;2023-04-02T00:32:26;42.90;;;20.30;;
71080;SDS011;58740;50.672;18.690;2023-04-02T00:34:58;37.10;;;18.60;;
71080;SDS011;58740;50.672;18.690;2023-04-02T00:37:29;42.80;;;20.10;;
71080;SDS011;58740;50.672;18.690;2023-04-02T00:40:08;39.40;;;17.70;;
71080;SDS011;58740;50.672;18.690;2023-04-02T00:42:42;44.90;;;20.40;;
71080;SDS011;58740;50.672;18.690;2023-04-02T00:45:31;36.20;;;16.20;;
71080;SDS011;58740;50.672;18.690;2023-04-02T00:48:32;35.70;;;17.60;;
71080;SDS011;58740;50.672;18.690;2023-04-02T00:51:31;36.10;;;16.30;;
71080;SDS011;58740;50.672;18.690;2023-04-02T00:54:24;32.90;;;14.80;;
71080;SDS011;58740;50.672;18.690;2023-04-02T00:56:57;32.30;;;16.00;;
71080;SDS011;58740;50.672;18.690;2023-04-02T00:59:28;29.20;;;15.00;;
71080;SDS011;58740;50.672;18.690;2023-04-02T01:02:21;35.90;;;17.80;;
71080;SDS011;58740;50.672;18.690;2023-04-02T01:08:03;31.10;;;15.60;;
71080;SDS011;58740;50.672;18.690;2023-04-02T01:13:29;37.40;;;17.70;;
71080;SDS011;58740;50.672;18.690;2023-04-02T01:22:29;30.20;;;15.70;;
71080;SDS011;58740;50.672;18.690;2023-04-02T01:25:04;32.00;;;17.10;;
71080;SDS011;58740;50.672;18.690;2023-04-02T01:27:46;33.20;;;16.80;;
71080;SDS011;58740;50.672;18.690;2023-04-02T01:30:20;28.60;;;15.00;;
71080;SDS011;58740;50.672;18.690;2023-04-02T01:32:49;32.10;;;16.70;;
71080;SDS011;58740;50.672;18.690;2023-04-02T01:35:17;36.80;;;18.10;;
71080;SDS011;58740;50.672;18.690;2023-04-02T01:40:49;31.10;;;15.70;;
71080;SDS011;58740;50.672;18.690;2023-04-02T01:43:31;21.70;;;11.70;;
71080;SDS011;58740;50.672;18.690;2023-04-02T01:46:23;31.70;;;14.90;;
71080;SDS011;58740;50.672;18.690;2023-04-02T01:48:54;28.30;;;14.60;;
71080;SDS011;58740;50.672;18.690;2023-04-02T01:51:31;32.90;;;16.70;;
71080;SDS011;58740;50.672;18.690;2023-04-02T01:54:02;26.80;;;11.80;;
71080;SDS011;58740;50.672;18.690;2023-04-02T01:56:32;25.80;;;12.60;;
71080;SDS011;58740;50.672;18.690;2023-04-02T01:59:02;32.00;;;14.50;;
71080;SDS011;58740;50.672;18.690;2023-04-02T02:01:37;26.40;;;13.40;;
71080;SDS011;58740;50.672;18.690;2023-04-02T02:04:12;28.10;;;14.50;;
71080;SDS011;58740;50.672;18.690;2023-04-02T02:06:43;26.10;;;13.20;;
71080;SDS011;58740;50.672;18.690;2023-04-02T02:09:18;25.70;;;13.60;;
71080;SDS011;58740;50.672;18.690;2023-04-02T02:11:52;26.60;;;13.40;;
71080;SDS011;58740;50.672;18.690;2023-04-02T02:14:26;26.80;;;13.80;;
71080;SDS011;58740;50.672;18.690;2023-04-02T02:16:57;24.10;;;12.60;;
71080;SDS011;58740;50.672;18.690;2023-04-02T02:19:35;18.90;;;10.70;;
71080;SDS011;58740;50.672;18.690;2023-04-02T02:25:10;22.10;;;11.70;;
71080;SDS011;58740;50.672;18.690;2023-04-02T02:27:55;23.50;;;12.60;;
71080;SDS011;58740;50.672;18.690;2023-04-02T02:30:40;21.90;;;11.20;;
71080;SDS011;58740;50.672;18.690;2023-04-02T02:33:22;23.00;;;11.40;;
71080;SDS011;58740;50.672;18.690;2023-04-02T02:35:56;22.60;;;12.80;;
71080;SDS011;58740;50.672;18.690;2023-04-02T02:44:17;20.10;;;8.80;;
71080;SDS011;58740;50.672;18.690;2023-04-02T02:47:17;21.00;;;9.90;;
71080;SDS011;58740;50.672;18.690;2023-04-02T02:49:55;22.40;;;11.30;;
71080;SDS011;58740;50.672;18.690;2023-04-02T02:52:30;18.40;;;9.70;;
71080;SDS011;58740;50.672;18.690;2023-04-02T02:55:07;23.00;;;10.50;;
71080;SDS011;58740;50.672;18.690;2023-04-02T02:57:43;17.60;;;9.60;;
71080;SDS011;58740;50.672;18.690;2023-04-02T03:00:15;22.70;;;10.30;;
71080;SDS011;58740;50.672;18.690;2023-04-02T03:02:46;19.10;;;9.60;;
71080;SDS011;58740;50.672;18.690;2023-04-02T03:05:19;17.20;;;9.00;;
71080;SDS011;58740;50.672;18.690;2023-04-02T03:07:51;21.70;;;11.00;;
71080;SDS011;58740;50.672;18.690;2023-04-02T03:10:28;19.00;;;10.00;;
71080;SDS011;58740;50.672;18.690;2023-04-02T03:18:47;18.60;;;10.90;;
71080;SDS011;58740;50.672;18.690;2023-04-02T03:24:16;15.20;;;8.30;;
71080;SDS011;58740;50.672;18.690;2023-04-02T03:29:57;15.70;;;7.50;;
71080;SDS011;58740;50.672;18.690;2023-04-02T03:32:36;14.80;;;7.80;;
71080;SDS011;58740;50.672;18.690;2023-04-02T03:38:33;15.50;;;7.20;;
71080;SDS011;58740;50.672;18.690;2023-04-02T03:41:17;14.90;;;7.50;;
71080;SDS011;58740;50.672;18.690;2023-04-02T03:43:52;15.80;;;8.10;;
71080;SDS011;58740;50.672;18.690;2023-04-02T03:46:40;15.00;;;7.50;;
71080;SDS011;58740;50.672;18.690;2023-04-02T03:49:18;16.70;;;8.10;;
71080;SDS011;58740;50.672;18.690;2023-04-02T03:52:02;10.90;;;5.40;;
71080;SDS011;58740;50.672;18.690;2023-04-02T03:54:32;13.20;;;6.60;;
71080;SDS011;58740;50.672;18.690;2023-04-02T03:57:00;14.80;;;8.00;;
71080;SDS011;58740;50.672;18.690;2023-04-02T03:59:34;15.00;;;7.20;;
71080;SDS011;58740;50.672;18.690;2023-04-02T04:05:06;12.40;;;5.70;;
71080;SDS011;58740;50.672;18.690;2023-04-02T04:07:52;10.40;;;5.50;;
71080;SDS011;58740;50.672;18.690;2023-04-02T04:10:26;12.70;;;6.10;;
71080;SDS011;58740;50.672;18.690;2023-04-02T04:13:24;9.50;;;4.80;;
71080;SDS011;58740;50.672;18.690;2023-04-02T04:16:03;14.40;;;7.10;;
71080;SDS011;58740;50.672;18.690;2023-04-02T04:21:49;9.10;;;4.20;;
71080;SDS011;58740;50.672;18.690;2023-04-02T04:24:23;6.80;;;3.80;;
71080;SDS011;58740;50.672;18.690;2023-04-02T04:27:05;7.90;;;3.10;;
71080;SDS011;58740;50.672;18.690;2023-04-02T04:32:52;7.20;;;3.60;;
71080;SDS011;58740;50.672;18.690;2023-04-02T04:35:28;9.90;;;4.10;;
71080;SDS011;58740;50.672;18.690;2023-04-02T04:38:02;6.70;;;3.00;;
71080;SDS011;58740;50.672;18.690;2023-04-02T04:40:44;4.60;;;2.10;;
71080;SDS011;58740;50.672;18.690;2023-04-02T04:43:31;5.60;;;2.70;;
71080;SDS011;58740;50.672;18.690;2023-04-02T04:46:27;6.20;;;2.70;;
71080;SDS011;58740;50.672;18.690;2023-04-02T04:49:07;6.70;;;3.50;;
71080;SDS011;58740;50.672;18.690;2023-04-02T04:51:58;7.30;;;3.00;;
71080;SDS011;58740;50.672;18.690;2023-04-02T04:54:36;8.90;;;2.50;;
71080;SDS011;58740;50.672;18.690;2023-04-02T04:57:20;5.20;;;2.80;;
71080;SDS011;58740;50.672;18.690;2023-04-02T04:59:59;7.60;;;3.70;;
71080;SDS011;58740;50.672;18.690;2023-04-02T05:03:25;8.60;;;3.90;;
71080;SDS011;58740;50.672;18.690;2023-04-02T05:06:00;9.20;;;4.50;;
71080;SDS011;58740;50.672;18.690;2023-04-02T05:08:37;14.40;;;8.70;;
71080;SDS011;58740;50.672;18.690;2023-04-02T05:15:26;8.70;;;4.50;;
71080;SDS011;58740;50.672;18.690;2023-04-02T05:18:20;10.80;;;5.80;;
71080;SDS011;58740;50.672;18.690;2023-04-02T05:21:04;8.90;;;5.40;;
71080;SDS011;58740;50.672;18.690;2023-04-02T05:26:49;5.10;;;2.60;;
71080;SDS011;58740;50.672;18.690;2023-04-02T05:29:27;4.30;;;2.00;;
71080;SDS011;58740;50.672;18.690;2023-04-02T05:32:06;6.90;;;2.70;;
71080;SDS011;58740;50.672;18.690;2023-04-02T05:34:37;4.70;;;2.10;;
71080;SDS011;58740;50.672;18.690;2023-04-02T05:37:20;5.40;;;2.50;;
71080;SDS011;58740;50.672;18.690;2023-04-02T05:39:54;5.50;;;2.00;;
71080;SDS011;58740;50.672;18.690;2023-04-02T05:42:27;6.20;;;2.20;;
71080;SDS011;58740;50.672;18.690;2023-04-02T05:45:22;3.30;;;1.40;;
71080;SDS011;58740;50.672;18.690;2023-04-02T05:47:56;4.50;;;1.80;;
71080;SDS011;58740;50.672;18.690;2023-04-02T05:50:33;4.70;;;1.90;;
71080;SDS011;58740;50.672;18.690;2023-04-02T05:53:20;3.40;;;1.30;;
71080;SDS011;58740;50.672;18.690;2023-04-02T05:56:14;3.60;;;1.40;;
71080;SDS011;58740;50.672;18.690;2023-04-02T05:58:49;2.80;;;1.20;;
71080;SDS011;58740;50.672;18.690;2023-04-02T06:01:26;3.70;;;1.10;;
71080;SDS011;58740;50.672;18.690;2023-04-02T06:04:30;1.80;;;0.90;;
71080;SDS011;58740;50.672;18.690;2023-04-02T06:07:11;2.40;;;0.80;;
71080;SDS011;58740;50.672;18.690;2023-04-02T06:09:54;3.10;;;0.90;;
71080;SDS011;58740;50.672;18.690;2023-04-02T06:12:57;1.80;;;0.60;;
71080;SDS011;58740;50.672;18.690;2023-04-02T06:15:31;2.60;;;0.80;;
71080;SDS011;58740;50.672;18.690;2023-04-02T06:18:12;2.40;;;0.90;;
71080;SDS011;58740;50.672;18.690;2023-04-02T06:20:46;4.20;;;1.00;;
71080;SDS011;58740;50.672;18.690;2023-04-02T06:23:38;4.00;;;1.10;;
71080;SDS011;58740;50.672;18.690;2023-04-02T06:29:15;3.30;;;1.40;;
71080;SDS011;58740;50.672;18.690;2023-04-02T06:31:57;3.70;;;1.60;;
71080;SDS011;58740;50.672;18.690;2023-04-02T06:34:28;3.00;;;0.90;;
71080;SDS011;58740;50.672;18.690;2023-04-02T06:37:01;2.50;;;1.10;;
71080;SDS011;58740;50.672;18.690;2023-04-02T06:39:31;4.20;;;1.60;;
71080;SDS011;58740;50.672;18.690;2023-04-02T06:44:38;2.80;;;0.90;;
71080;SDS011;58740;50.672;18.690;2023-04-02T06:47:27;3.00;;;1.20;;
71080;SDS011;58740;50.672;18.690;2023-04-02T06:50:10;4.50;;;1.80;;
71080;SDS011;58740;50.672;18.690;2023-04-02T06:57:47;3.20;;;1.50;;
71080;SDS011;58740;50.672;18.690;2023-04-02T07:00:35;3.60;;;1.60;;
71080;SDS011;58740;50.672;18.690;2023-04-02T07:03:13;5.50;;;1.90;;
71080;SDS011;58740;50.672;18.690;2023-04-02T07:05:43;6.60;;;2.40;;
71080;SDS011;58740;50.672;18.690;2023-04-02T07:08:10;7.90;;;3.40;;
71080;SDS011;58740;50.672;18.690;2023-04-02T07:10:38;9.00;;;4.30;;
71080;SDS011;58740;50.672;18.690;2023-04-02T07:13:15;7.70;;;3.60;;
71080;SDS011;58740;50.672;18.690;2023-04-02T07:15:50;5.80;;;2.70;;
71080;SDS011;58740;50.672;18.690;2023-04-02T07:20:52;7.30;;;2.90;;
71080;SDS011;58740;50.672;18.690;2023-04-02T07:23:20;5.70;;;2.90;;
71080;SDS011;58740;50.672;18.690;2023-04-02T07:25:52;5.10;;;2.20;;
71080;SDS011;58740;50.672;18.690;2023-04-02T07:28:21;7.00;;;2.80;;
71080;SDS011;58740;50.672;18.690;2023-04-02T07:30:50;6.80;;;2.60;;
71080;SDS011;58740;50.672;18.690;2023-04-02T07:33:21;7.20;;;3.60;;
71080;SDS011;58740;50.672;18.690;2023-04-02T07:35:53;6.80;;;3.70;;
71080;SDS011;58740;50.672;18.690;2023-04-02T07:38:22;7.90;;;3.90;;
71080;SDS011;58740;50.672;18.690;2023-04-02T07:40:50;9.30;;;5.40;;
71080;SDS011;58740;50.672;18.690;2023-04-02T07:43:19;8.70;;;4.40;;
71080;SDS011;58740;50.672;18.690;2023-04-02T07:45:49;7.60;;;4.60;;
71080;SDS011;58740;50.672;18.690;2023-04-02T07:48:18;8.10;;;4.30;;
71080;SDS011;58740;50.672;18.690;2023-04-02T07:50:46;9.90;;;5.40;;
71080;SDS011;58740;50.672;18.690;2023-04-02T07:53:35;12.00;;;5.90;;
71080;SDS011;58740;50.672;18.690;2023-04-02T07:56:06;10.30;;;4.90;;
71080;SDS011;58740;50.672;18.690;2023-04-02T07:58:34;14.00;;;6.60;;
71080;SDS011;58740;50.672;18.690;2023-04-02T08:01:02;11.70;;;6.10;;
71080;SDS011;58740;50.672;18.690;2023-04-02T08:03:30;10.40;;;6.50;;
71080;SDS011;58740;50.672;18.690;2023-04-02T08:05:59;10.10;;;4.80;;
71080;SDS011;58740;50.672;18.690;2023-04-02T08:08:27;12.50;;;6.30;;
71080;SDS011;58740;50.672;18.690;2023-04-02T08:10:55;14.50;;;8.50;;
71080;SDS011;58740;50.672;18.690;2023-04-02T08:13:23;14.70;;;7.80;;
71080;SDS011;58740;50.672;18.690;2023-04-02T08:15:50;9.60;;;4.40;;
71080;SDS011;58740;50.672;18.690;2023-04-02T08:18:21;13.40;;;6.60;;
71080;SDS011;58740;50.672;18.690;2023-04-02T08:20:50;13.40;;;7.00;;
71080;SDS011;58740;50.672;18.690;2023-04-02T08:23:19;13.40;;;7.30;;
71080;SDS011;58740;50.672;18.690;2023-04-02T08:25:48;14.40;;;9.00;;
71080;SDS011;58740;50.672;18.690;2023-04-02T08:28:17;8.90;;;4.50;;
71080;SDS011;58740;50.672;18.690;2023-04-02T08:30:44;10.80;;;4.50;;
71080;SDS011;58740;50.672;18.690;2023-04-02T08:33:12;12.80;;;5.80;;
71080;SDS011;58740;50.672;18.690;2023-04-02T08:35:40;9.20;;;4.60;;
71080;SDS011;58740;50.672;18.690;2023-04-02T08:38:14;10.70;;;6.40;;
71080;SDS011;58740;50.672;18.690;2023-04-02T08:40:48;10.80;;;5.70;;
71080;SDS011;58740;50.672;18.690;2023-04-02T08:44:06;10.60;;;5.50;;
71080;SDS011;58740;50.672;18.690;2023-04-02T08:49:56;12.20;;;6.40;;
71080;SDS011;58740;50.672;18.690;2023-04-02T08:52:34;8.50;;;5.00;;
71080;SDS011;58740;50.672;18.690;2023-04-02T08:55:16;12.40;;;6.10;;
71080;SDS011;58740;50.672;18.690;2023-04-02T08:58:08;10.40;;;5.80;;
71080;SDS011;58740;50.672;18.690;2023-04-02T09:00:52;12.00;;;7.40;;
71080;SDS011;58740;50.672;18.690;2023-04-02T09:03:44;11.10;;;6.30;;
71080;SDS011;58740;50.672;18.690;2023-04-02T09:06:17;8.20;;;4.70;;
71080;SDS011;58740;50.672;18.690;2023-04-02T09:08:50;11.30;;;6.30;;
71080;SDS011;58740;50.672;18.690;2023-04-02T09:11:26;8.70;;;5.20;;
71080;SDS011;58740;50.672;18.690;2023-04-02T09:14:07;14.70;;;7.40;;
71080;SDS011;58740;50.672;18.690;2023-04-02T09:16:50;10.60;;;6.00;;
71080;SDS011;58740;50.672;18.690;2023-04-02T09:19:24;10.60;;;5.80;;
71080;SDS011;58740;50.672;18.690;2023-04-02T09:22:18;7.80;;;4.90;;
71080;SDS011;58740;50.672;18.690;2023-04-02T09:24:56;10.70;;;5.50;;
71080;SDS011;58740;50.672;18.690;2023-04-02T09:27:34;13.00;;;7.20;;
71080;SDS011;58740;50.672;18.690;2023-04-02T09:33:13;7.40;;;4.20;;
71080;SDS011;58740;50.672;18.690;2023-04-02T09:38:28;10.70;;;5.50;;
71080;SDS011;58740;50.672;18.690;2023-04-02T09:41:01;9.20;;;4.90;;
71080;SDS011;58740;50.672;18.690;2023-04-02T09:43:36;6.80;;;3.80;;
71080;SDS011;58740;50.672;18.690;2023-04-02T09:46:22;10.20;;;5.20;;
71080;SDS011;58740;50.672;18.690;2023-04-02T09:48:56;8.60;;;3.90;;
71080;SDS011;58740;50.672;18.690;2023-04-02T09:51:31;10.00;;;4.50;;
71080;SDS011;58740;50.672;18.690;2023-04-02T09:56:38;9.80;;;5.70;;
71080;SDS011;58740;50.672;18.690;2023-04-02T09:59:14;7.90;;;4.60;;
71080;SDS011;58740;50.672;18.690;2023-04-02T10:02:02;8.20;;;4.50;;
71080;SDS011;58740;50.672;18.690;2023-04-02T10:04:40;8.60;;;4.50;;
71080;SDS011;58740;50.672;18.690;2023-04-02T10:07:35;8.20;;;4.90;;
71080;SDS011;58740;50.672;18.690;2023-04-02T10:10:33;6.40;;;3.50;;
71080;SDS011;58740;50.672;18.690;2023-04-02T10:13:24;9.20;;;5.50;;
71080;SDS011;58740;50.672;18.690;2023-04-02T10:16:08;10.20;;;5.70;;
71080;SDS011;58740;50.672;18.690;2023-04-02T10:18:48;8.60;;;3.30;;
71080;SDS011;58740;50.672;18.690;2023-04-02T10:21:26;7.20;;;3.50;;
71080;SDS011;58740;50.672;18.690;2023-04-02T10:23:57;8.90;;;5.10;;
71080;SDS011;58740;50.672;18.690;2023-04-02T10:26:37;8.00;;;4.50;;
71080;SDS011;58740;50.672;18.690;2023-04-02T10:29:35;8.20;;;4.30;;
71080;SDS011;58740;50.672;18.690;2023-04-02T10:40:24;8.80;;;4.90;;
71080;SDS011;58740;50.672;18.690;2023-04-02T10:46:46;7.20;;;3.40;;
71080;SDS011;58740;50.672;18.690;2023-04-02T10:55:15;8.90;;;4.70;;
71080;SDS011;58740;50.672;18.690;2023-04-02T10:57:47;7.50;;;3.60;;
71080;SDS011;58740;50.672;18.690;2023-04-02T11:00:25;5.70;;;2.70;;
71080;SDS011;58740;50.672;18.690;2023-04-02T11:08:38;9.50;;;5.20;;
71080;SDS011;58740;50.672;18.690;2023-04-02T11:14:00;7.40;;;4.20;;
71080;SDS011;58740;50.672;18.690;2023-04-02T11:16:32;11.50;;;5.30;;
71080;SDS011;58740;50.672;18.690;2023-04-02T11:32:44;15.50;;;9.00;;
71080;SDS011;58740;50.672;18.690;2023-04-02T11:40:50;12.40;;;6.50;;
71080;SDS011;58740;50.672;18.690;2023-04-02T11:49:32;9.70;;;5.60;;
71080;SDS011;58740;50.672;18.690;2023-04-02T11:52:21;10.70;;;6.10;;
71080;SDS011;58740;50.672;18.690;2023-04-02T11:55:16;9.80;;;5.10;;
71080;SDS011;58740;50.672;18.690;2023-04-02T11:58:10;12.50;;;7.00;;
71080;SDS011;58740;50.672;18.690;2023-04-02T12:03:47;9.30;;;4.90;;
71080;SDS011;58740;50.672;18.690;2023-04-02T12:06:44;10.80;;;6.40;;
71080;SDS011;58740;50.672;18.690;2023-04-02T12:09:19;9.80;;;5.60;;
71080;SDS011;58740;50.672;18.690;2023-04-02T12:11:51;14.60;;;7.80;;
71080;SDS011;58740;50.672;18.690;2023-04-02T12:17:27;12.00;;;6.50;;
71080;SDS011;58740;50.672;18.690;2023-04-02T12:20:19;12.70;;;7.10;;
71080;SDS011;58740;50.672;18.690;2023-04-02T12:22:52;9.90;;;5.20;;
71080;SDS011;58740;50.672;18.690;2023-04-02T12:25:35;10.90;;;6.30;;
71080;SDS011;58740;50.672;18.690;2023-04-02T12:30:37;12.90;;;6.80;;
71080;SDS011;58740;50.672;18.690;2023-04-02T12:35:47;9.30;;;4.60;;
71080;SDS011;58740;50.672;18.690;2023-04-02T12:38:29;8.90;;;4.80;;
71080;SDS011;58740;50.672;18.690;2023-04-02T12:41:02;10.20;;;6.30;;
71080;SDS011;58740;50.672;18.690;2023-04-02T12:43:34;9.60;;;5.30;;
71080;SDS011;58740;50.672;18.690;2023-04-02T12:46:06;9.80;;;5.90;;
71080;SDS011;58740;50.672;18.690;2023-04-02T12:48:35;10.10;;;6.00;;
71080;SDS011;58740;50.672;18.690;2023-04-02T12:51:04;11.90;;;6.10;;
71080;SDS011;58740;50.672;18.690;2023-04-02T12:53:35;12.50;;;7.90;;
71080;SDS011;58740;50.672;18.690;2023-04-02T12:56:06;9.50;;;4.70;;
71080;SDS011;58740;50.672;18.690;2023-04-02T12:58:54;9.80;;;5.20;;
71080;SDS011;58740;50.672;18.690;2023-04-02T13:01:29;9.60;;;4.80;;
71080;SDS011;58740;50.672;18.690;2023-04-02T13:04:02;8.00;;;4.80;;
71080;SDS011;58740;50.672;18.690;2023-04-02T13:06:31;10.80;;;4.80;;
71080;SDS011;58740;50.672;18.690;2023-04-02T13:09:02;7.20;;;4.00;;
71080;SDS011;58740;50.672;18.690;2023-04-02T13:11:37;9.40;;;4.10;;
71080;SDS011;58740;50.672;18.690;2023-04-02T13:14:17;9.50;;;5.00;;
71080;SDS011;58740;50.672;18.690;2023-04-02T13:16:47;9.00;;;4.10;;
71080;SDS011;58740;50.672;18.690;2023-04-02T13:19:29;9.00;;;5.10;;
71080;SDS011;58740;50.672;18.690;2023-04-02T13:22:01;9.00;;;5.70;;
71080;SDS011;58740;50.672;18.690;2023-04-02T13:24:31;7.80;;;4.30;;
71080;SDS011;58740;50.672;18.690;2023-04-02T13:27:01;10.60;;;4.80;;
71080;SDS011;58740;50.672;18.690;2023-04-02T13:29:34;10.70;;;5.90;;
71080;SDS011;58740;50.672;18.690;2023-04-02T13:32:05;11.10;;;5.70;;
71080;SDS011;58740;50.672;18.690;2023-04-02T13:34:37;9.10;;;4.10;;
71080;SDS011;58740;50.672;18.690;2023-04-02T13:37:05;6.30;;;3.10;;
71080;SDS011;58740;50.672;18.690;2023-04-02T13:39:32;9.50;;;5.20;;
71080;SDS011;58740;50.672;18.690;2023-04-02T13:42:02;8.80;;;4.80;;
71080;SDS011;58740;50.672;18.690;2023-04-02T13:44:33;8.40;;;4.40;;
71080;SDS011;58740;50.672;18.690;2023-04-02T13:47:03;8.30;;;4.00;;
71080;SDS011;58740;50.672;18.690;2023-04-02T13:49:31;8.00;;;3.70;;
71080;SDS011;58740;50.672;18.690;2023-04-02T13:52:00;6.40;;;3.30;;
71080;SDS011;58740;50.672;18.690;2023-04-02T13:54:39;11.80;;;5.60;;
71080;SDS011;58740;50.672;18.690;2023-04-02T13:57:16;6.00;;;3.20;;
71080;SDS011;58740;50.672;18.690;2023-04-02T13:59:45;7.60;;;4.20;;
71080;SDS011;58740;50.672;18.690;2023-04-02T14:02:17;7.30;;;3.30;;
71080;SDS011;58740;50.672;18.690;2023-04-02T14:04:52;7.00;;;3.90;;
71080;SDS011;58740;50.672;18.690;2023-04-02T14:13:11;7.20;;;2.80;;
71080;SDS011;58740;50.672;18.690;2023-04-02T14:34:07;6.40;;;3.00;;
71080;SDS011;58740;50.672;18.690;2023-04-02T14:37:09;6.50;;;2.70;;
71080;SDS011;58740;50.672;18.690;2023-04-02T14:42:30;5.00;;;2.70;;
71080;SDS011;58740;50.672;18.690;2023-04-02T14:45:22;6.60;;;2.60;;
71080;SDS011;58740;50.672;18.690;2023-04-02T14:48:06;4.50;;;2.40;;
71080;SDS011;58740;50.672;18.690;2023-04-02T14:50:47;6.10;;;2.60;;
71080;SDS011;58740;50.672;18.690;2023-04-02T14:53:28;6.30;;;2.80;;
71080;SDS011;58740;50.672;18.690;2023-04-02T14:56:06;6.90;;;2.80;;
71080;SDS011;58740;50.672;18.690;2023-04-02T14:58:39;6.00;;;3.00;;
71080;SDS011;58740;50.672;18.690;2023-04-02T15:01:16;8.70;;;4.80;;
71080;SDS011;58740;50.672;18.690;2023-04-02T15:03:57;7.80;;;3.30;;
71080;SDS011;58740;50.672;18.690;2023-04-02T15:06:33;4.90;;;2.70;;
71080;SDS011;58740;50.672;18.690;2023-04-02T15:09:10;7.00;;;4.00;;
71080;SDS011;58740;50.672;18.690;2023-04-02T15:11:56;10.00;;;4.80;;
71080;SDS011;58740;50.672;18.690;2023-04-02T15:14:37;6.90;;;3.50;;
71080;SDS011;58740;50.672;18.690;2023-04-02T15:17:10;8.10;;;4.50;;
71080;SDS011;58740;50.672;18.690;2023-04-02T15:19:38;8.20;;;3.80;;
71080;SDS011;58740;50.672;18.690;2023-04-02T15:22:17;9.40;;;4.30;;
71080;SDS011;58740;50.672;18.690;2023-04-02T15:25:36;11.60;;;5.20;;
71080;SDS011;58740;50.672;18.690;2023-04-02T15:28:19;13.50;;;7.10;;
71080;SDS011;58740;50.672;18.690;2023-04-02T15:30:55;8.40;;;4.00;;
71080;SDS011;58740;50.672;18.690;2023-04-02T15:33:37;7.70;;;3.50;;
71080;SDS011;58740;50.672;18.690;2023-04-02T15:36:52;7.40;;;3.10;;
71080;SDS011;58740;50.672;18.690;2023-04-02T15:39:28;8.50;;;4.60;;
71080;SDS011;58740;50.672;18.690;2023-04-02T15:42:21;9.20;;;4.30;;
71080;SDS011;58740;50.672;18.690;2023-04-02T15:45:14;7.20;;;4.10;;
71080;SDS011;58740;50.672;18.690;2023-04-02T15:48:20;5.50;;;3.10;;
71080;SDS011;58740;50.672;18.690;2023-04-02T15:51:31;8.10;;;3.40;;
71080;SDS011;58740;50.672;18.690;2023-04-02T16:00:02;8.80;;;4.60;;
71080;SDS011;58740;50.672;18.690;2023-04-02T16:11:29;5.80;;;2.80;;
71080;SDS011;58740;50.672;18.690;2023-04-02T16:16:41;8.40;;;3.50;;
71080;SDS011;58740;50.672;18.690;2023-04-02T16:19:27;7.30;;;3.60;;
71080;SDS011;58740;50.672;18.690;2023-04-02T16:22:17;6.30;;;2.80;;
71080;SDS011;58740;50.672;18.690;2023-04-02T16:24:49;7.90;;;4.50;;
71080;SDS011;58740;50.672;18.690;2023-04-02T16:27:33;5.90;;;3.30;;
71080;SDS011;58740;50.672;18.690;2023-04-02T16:33:24;8.90;;;3.80;;
71080;SDS011;58740;50.672;18.690;2023-04-02T16:36:10;9.50;;;4.10;;
71080;SDS011;58740;50.672;18.690;2023-04-02T16:39:11;9.70;;;4.10;;
71080;SDS011;58740;50.672;18.690;2023-04-02T16:51:21;7.70;;;3.60;;
71080;SDS011;58740;50.672;18.690;2023-04-02T16:54:00;7.50;;;3.30;;
71080;SDS011;58740;50.672;18.690;2023-04-02T17:03:03;5.90;;;3.40;;
71080;SDS011;58740;50.672;18.690;2023-04-02T17:05:50;5.90;;;2.40;;
71080;SDS011;58740;50.672;18.690;2023-04-02T17:11:40;7.30;;;3.40;;
71080;SDS011;58740;50.672;18.690;2023-04-02T17:16:50;5.80;;;2.70;;
71080;SDS011;58740;50.672;18.690;2023-04-02T17:19:25;8.10;;;3.50;;
71080;SDS011;58740;50.672;18.690;2023-04-02T17:22:00;7.50;;;3.70;;
71080;SDS011;58740;50.672;18.690;2023-04-02T17:24:40;6.60;;;2.40;;
71080;SDS011;58740;50.672;18.690;2023-04-02T17:27:31;6.70;;;3.40;;
71080;SDS011;58740;50.672;18.690;2023-04-02T17:30:18;10.90;;;4.00;;
71080;SDS011;58740;50.672;18.690;2023-04-02T17:33:10;9.00;;;4.00;;
71080;SDS011;58740;50.672;18.690;2023-04-02T17:38:39;9.30;;;4.30;;
71080;SDS011;58740;50.672;18.690;2023-04-02T17:42:00;15.90;;;6.40;;
71080;SDS011;58740;50.672;18.690;2023-04-02T17:44:52;9.00;;;3.60;;
71080;SDS011;58740;50.672;18.690;2023-04-02T17:59:30;8.60;;;3.80;;
71080;SDS011;58740;50.672;18.690;2023-04-02T18:02:32;11.00;;;4.40;;
71080;SDS011;58740;50.672;18.690;2023-04-02T18:05:43;9.80;;;4.90;;
71080;SDS011;58740;50.672;18.690;2023-04-02T18:08:27;6.00;;;2.40;;
71080;SDS011;58740;50.672;18.690;2023-04-02T18:13:46;5.40;;;2.10;;
71080;SDS011;58740;50.672;18.690;2023-04-02T18:19:21;7.60;;;3.50;;
71080;SDS011;58740;50.672;18.690;2023-04-02T18:27:54;7.60;;;3.70;;
71080;SDS011;58740;50.672;18.690;2023-04-02T18:33:32;5.90;;;2.50;;
71080;SDS011;58740;50.672;18.690;2023-04-02T18:38:59;6.90;;;3.10;;
71080;SDS011;58740;50.672;18.690;2023-04-02T18:50:23;8.20;;;4.00;;
71080;SDS011;58740;50.672;18.690;2023-04-02T18:52:55;7.10;;;2.90;;
71080;SDS011;58740;50.672;18.690;2023-04-02T18:55:27;8.00;;;3.90;;
71080;SDS011;58740;50.672;18.690;2023-04-02T18:58:00;8.80;;;3.80;;
71080;SDS011;58740;50.672;18.690;2023-04-02T19:00:38;9.40;;;5.50;;
71080;SDS011;58740;50.672;18.690;2023-04-02T19:03:19;7.40;;;4.50;;
71080;SDS011;58740;50.672;18.690;2023-04-02T19:06:01;8.80;;;4.40;;
71080;SDS011;58740;50.672;18.690;2023-04-02T19:08:42;5.60;;;2.70;;
71080;SDS011;58740;50.672;18.690;2023-04-02T19:11:20;6.10;;;2.80;;
71080;SDS011;58740;50.672;18.690;2023-04-02T19:14:01;6.00;;;3.00;;
71080;SDS011;58740;50.672;18.690;2023-04-02T19:16:59;10.20;;;5.40;;
71080;SDS011;58740;50.672;18.690;2023-04-02T19:23:28;11.60;;;3.80;;
71080;SDS011;58740;50.672;18.690;2023-04-02T19:26:10;11.60;;;4.10;;
71080;SDS011;58740;50.672;18.690;2023-04-02T19:35:28;8.50;;;3.50;;
71080;SDS011;58740;50.672;18.690;2023-04-02T19:41:45;6.50;;;2.80;;
71080;SDS011;58740;50.672;18.690;2023-04-02T19:44:19;7.40;;;2.90;;
71080;SDS011;58740;50.672;18.690;2023-04-02T19:46:48;6.80;;;2.90;;
71080;SDS011;58740;50.672;18.690;2023-04-02T19:49:32;5.60;;;2.70;;
71080;SDS011;58740;50.672;18.690;2023-04-02T19:52:01;5.60;;;2.40;;
71080;SDS011;58740;50.672;18.690;2023-04-02T19:54:29;5.80;;;2.20;;
71080;SDS011;58740;50.672;18.690;2023-04-02T19:56:57;6.80;;;3.10;;
71080;SDS011;58740;50.672;18.690;2023-04-02T19:59:26;5.70;;;2.70;;
71080;SDS011;58740;50.672;18.690;2023-04-02T20:01:56;6.00;;;2.50;;
71080;SDS011;58740;50.672;18.690;2023-04-02T20:04:25;5.70;;;2.50;;
71080;SDS011;58740;50.672;18.690;2023-04-02T20:06:53;5.10;;;2.60;;
71080;SDS011;58740;50.672;18.690;2023-04-02T20:09:21;5.50;;;2.80;;